sensor_id;sensor_type;location;lat;lon;timestamp;P1;durP1;ratioP1;P2;durP2;ratioP2
44098;SDS011;29762;50.086;14.364;2022-11-15T00:03:33;4.25;;;3.85;;
44098;SDS011;29762;50.086;14.364;2022-11-15T00:09:11;4.32;;;3.92;;
44098;SDS011;29762;50.086;14.364;2022-11-15T00:14:49;4.03;;;3.72;;
44098;SDS011;29762;50.086;14.364;2022-11-15T00:20:27;4.35;;;3.95;;
44098;SDS011;29762;50.086;14.364;2022-11-15T00:26:06;4.05;;;3.63;;
44098;SDS011;29762;50.086;14.364;2022-11-15T00:37:22;5.65;;;3.72;;
44098;SDS011;29762;50.086;14.364;2022-11-15T00:43:01;4.32;;;3.90;;
44098;SDS011;29762;50.086;14.364;2022-11-15T00:48:39;4.18;;;3.78;;
44098;SDS011;29762;50.086;14.364;2022-11-15T00:54:17;4.10;;;3.80;;
44098;SDS011;29762;50.086;14.364;2022-11-15T00:59:55;4.05;;;3.65;;
44098;SDS011;29762;50.086;14.364;2022-11-15T01:05:36;4.28;;;3.80;;
44098;SDS011;29762;50.086;14.364;2022-11-15T01:11:15;4.28;;;3.88;;
44098;SDS011;29762;50.086;14.364;2022-11-15T01:16:53;3.72;;;3.42;;
44098;SDS011;29762;50.086;14.364;2022-11-15T01:22:31;4.15;;;3.75;;
44098;SDS011;29762;50.086;14.364;2022-11-15T01:28:10;4.22;;;3.78;;
44098;SDS011;29762;50.086;14.364;2022-11-15T01:33:48;4.20;;;3.70;;
44098;SDS011;29762;50.086;14.364;2022-11-15T01:45:05;4.00;;;3.60;;
44098;SDS011;29762;50.086;14.364;2022-11-15T01:56:23;3.77;;;3.47;;
44098;SDS011;29762;50.086;14.364;2022-11-15T02:02:03;3.97;;;3.60;;
44098;SDS011;29762;50.086;14.364;2022-11-15T02:07:42;4.07;;;3.78;;
44098;SDS011;29762;50.086;14.364;2022-11-15T02:13:21;4.18;;;3.78;;
44098;SDS011;29762;50.086;14.364;2022-11-15T02:37:02;3.95;;;3.65;;
44098;SDS011;29762;50.086;14.364;2022-11-15T02:42:47;3.83;;;3.45;;
44098;SDS011;29762;50.086;14.364;2022-11-15T02:48:48;3.53;;;3.22;;
44098;SDS011;29762;50.086;14.364;2022-11-15T02:54:29;3.58;;;3.28;;
44098;SDS011;29762;50.086;14.364;2022-11-15T03:00:13;3.42;;;3.13;;
44098;SDS011;29762;50.086;14.364;2022-11-15T03:05:56;3.67;;;3.38;;
44098;SDS011;29762;50.086;14.364;2022-11-15T03:11:43;3.50;;;3.20;;
44098;SDS011;29762;50.086;14.364;2022-11-15T03:17:28;3.33;;;3.03;;
44098;SDS011;29762;50.086;14.364;2022-11-15T03:23:09;4.00;;;3.60;;
44098;SDS011;29762;50.086;14.364;2022-11-15T03:28:58;3.83;;;3.35;;
44098;SDS011;29762;50.086;14.364;2022-11-15T03:34:41;3.58;;;3.28;;
44098;SDS011;29762;50.086;14.364;2022-11-15T03:40:24;3.95;;;3.65;;
44098;SDS011;29762;50.086;14.364;2022-11-15T03:46:07;3.38;;;3.08;;
44098;SDS011;29762;50.086;14.364;2022-11-15T03:51:48;3.50;;;3.20;;
44098;SDS011;29762;50.086;14.364;2022-11-15T03:57:26;3.30;;;3.00;;
44098;SDS011;29762;50.086;14.364;2022-11-15T04:03:04;3.58;;;3.28;;
44098;SDS011;29762;50.086;14.364;2022-11-15T04:14:21;3.00;;;2.80;;
44098;SDS011;29762;50.086;14.364;2022-11-15T04:19:59;3.33;;;2.95;;
44098;SDS011;29762;50.086;14.364;2022-11-15T04:25:57;3.50;;;3.20;;
44098;SDS011;29762;50.086;14.364;2022-11-15T04:31:37;3.10;;;2.80;;
44098;SDS011;29762;50.086;14.364;2022-11-15T04:37:15;3.72;;;3.42;;
44098;SDS011;29762;50.086;14.364;2022-11-15T04:42:53;3.37;;;3.10;;
44098;SDS011;29762;50.086;14.364;2022-11-15T04:48:31;2.92;;;2.72;;
44098;SDS011;29762;50.086;14.364;2022-11-15T04:54:10;3.67;;;3.00;;
44098;SDS011;29762;50.086;14.364;2022-11-15T04:59:48;2.80;;;2.60;;
44098;SDS011;29762;50.086;14.364;2022-11-15T05:05:26;3.17;;;2.87;;
44098;SDS011;29762;50.086;14.364;2022-11-15T05:11:04;3.10;;;2.90;;
44098;SDS011;29762;50.086;14.364;2022-11-15T05:16:42;3.20;;;2.90;;
44098;SDS011;29762;50.086;14.364;2022-11-15T05:22:21;3.05;;;2.75;;
44098;SDS011;29762;50.086;14.364;2022-11-15T05:28:00;3.15;;;2.88;;
44098;SDS011;29762;50.086;14.364;2022-11-15T05:33:38;2.75;;;2.55;;
44098;SDS011;29762;50.086;14.364;2022-11-15T05:39:17;3.30;;;3.00;;
44098;SDS011;29762;50.086;14.364;2022-11-15T05:44:55;2.95;;;2.75;;
44098;SDS011;29762;50.086;14.364;2022-11-15T05:56:13;2.83;;;2.63;;
44098;SDS011;29762;50.086;14.364;2022-11-15T06:01:52;3.70;;;2.50;;
44098;SDS011;29762;50.086;14.364;2022-11-15T06:07:30;2.97;;;2.78;;
44098;SDS011;29762;50.086;14.364;2022-11-15T06:13:08;3.50;;;2.80;;
44098;SDS011;29762;50.086;14.364;2022-11-15T06:18:46;3.37;;;3.07;;
44098;SDS011;29762;50.086;14.364;2022-11-15T06:24:25;5.93;;;2.58;;
44098;SDS011;29762;50.086;14.364;2022-11-15T06:30:03;4.65;;;2.53;;
44098;SDS011;29762;50.086;14.364;2022-11-15T06:35:42;3.90;;;2.60;;
44098;SDS011;29762;50.086;14.364;2022-11-15T06:41:20;3.50;;;2.63;;
44098;SDS011;29762;50.086;14.364;2022-11-15T06:46:59;3.70;;;3.15;;
44098;SDS011;29762;50.086;14.364;2022-11-15T06:52:37;5.68;;;3.20;;
44098;SDS011;29762;50.086;14.364;2022-11-15T06:58:15;5.05;;;3.70;;
44098;SDS011;29762;50.086;14.364;2022-11-15T07:03:54;4.30;;;3.38;;
44098;SDS011;29762;50.086;14.364;2022-11-15T07:09:32;5.35;;;3.30;;
44098;SDS011;29762;50.086;14.364;2022-11-15T07:15:10;5.33;;;3.33;;
44098;SDS011;29762;50.086;14.364;2022-11-15T07:20:48;6.40;;;3.17;;
44098;SDS011;29762;50.086;14.364;2022-11-15T07:26:26;6.38;;;3.50;;
44098;SDS011;29762;50.086;14.364;2022-11-15T07:32:04;6.87;;;3.50;;
44098;SDS011;29762;50.086;14.364;2022-11-15T07:37:42;6.03;;;3.75;;
44098;SDS011;29762;50.086;14.364;2022-11-15T07:43:20;5.03;;;3.60;;
44098;SDS011;29762;50.086;14.364;2022-11-15T07:48:59;5.55;;;3.63;;
44098;SDS011;29762;50.086;14.364;2022-11-15T07:54:37;6.53;;;3.70;;
44098;SDS011;29762;50.086;14.364;2022-11-15T08:00:15;4.88;;;3.33;;
44098;SDS011;29762;50.086;14.364;2022-11-15T08:05:54;5.28;;;3.60;;
44098;SDS011;29762;50.086;14.364;2022-11-15T08:11:33;3.85;;;3.15;;
44098;SDS011;29762;50.086;14.364;2022-11-15T08:17:11;6.45;;;3.30;;
44098;SDS011;29762;50.086;14.364;2022-11-15T08:22:49;4.75;;;3.38;;
44098;SDS011;29762;50.086;14.364;2022-11-15T08:28:28;4.80;;;3.20;;
44098;SDS011;29762;50.086;14.364;2022-11-15T08:39:45;5.30;;;3.28;;
44098;SDS011;29762;50.086;14.364;2022-11-15T08:45:23;4.10;;;3.40;;
44098;SDS011;29762;50.086;14.364;2022-11-15T08:51:01;4.15;;;3.35;;
44098;SDS011;29762;50.086;14.364;2022-11-15T08:56:39;4.68;;;3.22;;
44098;SDS011;29762;50.086;14.364;2022-11-15T09:02:17;5.45;;;3.53;;
44098;SDS011;29762;50.086;14.364;2022-11-15T09:07:56;4.07;;;3.00;;
44098;SDS011;29762;50.086;14.364;2022-11-15T09:13:34;4.28;;;3.25;;
44098;SDS011;29762;50.086;14.364;2022-11-15T09:19:15;6.40;;;3.20;;
44098;SDS011;29762;50.086;14.364;2022-11-15T09:24:53;4.25;;;2.95;;
44098;SDS011;29762;50.086;14.364;2022-11-15T09:30:31;5.45;;;3.05;;
44098;SDS011;29762;50.086;14.364;2022-11-15T09:36:10;4.53;;;2.85;;
44098;SDS011;29762;50.086;14.364;2022-11-15T09:47:44;4.88;;;3.17;;
44098;SDS011;29762;50.086;14.364;2022-11-15T09:53:44;3.35;;;2.85;;
44098;SDS011;29762;50.086;14.364;2022-11-15T09:59:15;4.90;;;3.03;;
44098;SDS011;29762;50.086;14.364;2022-11-15T10:04:40;4.18;;;3.00;;
44098;SDS011;29762;50.086;14.364;2022-11-15T10:15:31;3.72;;;2.50;;
44098;SDS011;29762;50.086;14.364;2022-11-15T10:20:56;3.17;;;2.78;;
44098;SDS011;29762;50.086;14.364;2022-11-15T10:26:18;3.15;;;2.72;;
44098;SDS011;29762;50.086;14.364;2022-11-15T10:31:37;3.25;;;2.72;;
44098;SDS011;29762;50.086;14.364;2022-11-15T10:36:58;3.70;;;2.40;;
44098;SDS011;29762;50.086;14.364;2022-11-15T10:42:27;3.58;;;2.70;;
44098;SDS011;29762;50.086;14.364;2022-11-15T10:47:48;3.53;;;2.50;;
44098;SDS011;29762;50.086;14.364;2022-11-15T10:53:50;4.90;;;3.03;;
44098;SDS011;29762;50.086;14.364;2022-11-15T10:58:57;3.33;;;2.78;;
44098;SDS011;29762;50.086;14.364;2022-11-15T11:04:17;6.32;;;3.35;;
44098;SDS011;29762;50.086;14.364;2022-11-15T11:09:38;7.57;;;3.60;;
44098;SDS011;29762;50.086;14.364;2022-11-15T11:15:02;6.78;;;3.45;;
44098;SDS011;29762;50.086;14.364;2022-11-15T11:20:33;7.20;;;3.30;;
44098;SDS011;29762;50.086;14.364;2022-11-15T11:37:12;3.45;;;2.88;;
44098;SDS011;29762;50.086;14.364;2022-11-15T11:54:37;4.40;;;3.03;;
44098;SDS011;29762;50.086;14.364;2022-11-15T11:59:52;3.13;;;2.60;;
44098;SDS011;29762;50.086;14.364;2022-11-15T12:05:18;3.70;;;2.85;;
44098;SDS011;29762;50.086;14.364;2022-11-15T12:10:47;4.15;;;2.75;;
44098;SDS011;29762;50.086;14.364;2022-11-15T12:16:28;2.95;;;2.70;;
44098;SDS011;29762;50.086;14.364;2022-11-15T12:27:22;3.13;;;2.50;;
44098;SDS011;29762;50.086;14.364;2022-11-15T12:32:59;2.70;;;2.50;;
44098;SDS011;29762;50.086;14.364;2022-11-15T12:38:49;3.88;;;2.50;;
44098;SDS011;29762;50.086;14.364;2022-11-15T12:49:50;2.50;;;2.30;;
44098;SDS011;29762;50.086;14.364;2022-11-15T12:55:30;2.60;;;2.40;;
44098;SDS011;29762;50.086;14.364;2022-11-15T13:00:51;2.85;;;2.50;;
44098;SDS011;29762;50.086;14.364;2022-11-15T13:06:33;2.40;;;2.20;;
44098;SDS011;29762;50.086;14.364;2022-11-15T13:17:51;2.97;;;2.65;;
44098;SDS011;29762;50.086;14.364;2022-11-15T13:23:12;2.60;;;2.22;;
44098;SDS011;29762;50.086;14.364;2022-11-15T13:28:47;2.72;;;2.47;;
44098;SDS011;29762;50.086;14.364;2022-11-15T13:39:44;2.55;;;2.20;;
44098;SDS011;29762;50.086;14.364;2022-11-15T13:45:04;2.90;;;2.30;;
44098;SDS011;29762;50.086;14.364;2022-11-15T13:50:25;4.45;;;2.50;;
44098;SDS011;29762;50.086;14.364;2022-11-15T13:55:47;3.03;;;2.40;;
44098;SDS011;29762;50.086;14.364;2022-11-15T14:01:06;2.97;;;2.45;;
44098;SDS011;29762;50.086;14.364;2022-11-15T14:06:27;2.55;;;2.35;;
44098;SDS011;29762;50.086;14.364;2022-11-15T14:11:54;2.30;;;2.10;;
44098;SDS011;29762;50.086;14.364;2022-11-15T14:22:54;2.40;;;2.20;;
44098;SDS011;29762;50.086;14.364;2022-11-15T14:28:16;2.45;;;2.15;;
44098;SDS011;29762;50.086;14.364;2022-11-15T14:33:49;2.22;;;2.05;;
44098;SDS011;29762;50.086;14.364;2022-11-15T14:39:08;2.30;;;2.10;;
44098;SDS011;29762;50.086;14.364;2022-11-15T14:44:28;2.60;;;2.30;;
44098;SDS011;29762;50.086;14.364;2022-11-15T14:49:48;3.63;;;2.22;;
44098;SDS011;29762;50.086;14.364;2022-11-15T14:55:13;3.75;;;2.45;;
44098;SDS011;29762;50.086;14.364;2022-11-15T15:00:37;2.75;;;2.30;;
44098;SDS011;29762;50.086;14.364;2022-11-15T15:05:58;3.25;;;2.40;;
44098;SDS011;29762;50.086;14.364;2022-11-15T15:11:21;2.85;;;2.65;;
44098;SDS011;29762;50.086;14.364;2022-11-15T15:16:42;3.00;;;2.47;;
44098;SDS011;29762;50.086;14.364;2022-11-15T15:22:02;4.75;;;2.72;;
44098;SDS011;29762;50.086;14.364;2022-11-15T15:27:21;3.65;;;2.60;;
44098;SDS011;29762;50.086;14.364;2022-11-15T15:32:41;3.70;;;3.25;;
44098;SDS011;29762;50.086;14.364;2022-11-15T15:38:00;6.18;;;3.20;;
44098;SDS011;29762;50.086;14.364;2022-11-15T15:43:20;5.63;;;3.35;;
44098;SDS011;29762;50.086;14.364;2022-11-15T15:48:39;4.35;;;3.20;;
44098;SDS011;29762;50.086;14.364;2022-11-15T15:53:59;9.40;;;3.97;;
44098;SDS011;29762;50.086;14.364;2022-11-15T15:59:18;6.70;;;3.78;;
44098;SDS011;29762;50.086;14.364;2022-11-15T16:04:38;6.57;;;3.60;;
44098;SDS011;29762;50.086;14.364;2022-11-15T16:09:57;6.95;;;3.63;;
44098;SDS011;29762;50.086;14.364;2022-11-15T16:15:21;10.65;;;4.50;;
44098;SDS011;29762;50.086;14.364;2022-11-15T16:20:42;13.45;;;5.00;;
44098;SDS011;29762;50.086;14.364;2022-11-15T16:26:20;8.90;;;4.25;;
44098;SDS011;29762;50.086;14.364;2022-11-15T16:31:41;8.43;;;4.10;;
44098;SDS011;29762;50.086;14.364;2022-11-15T16:37:00;9.07;;;4.20;;
44098;SDS011;29762;50.086;14.364;2022-11-15T16:42:20;8.32;;;4.03;;
44098;SDS011;29762;50.086;14.364;2022-11-15T16:47:40;6.57;;;3.85;;
44098;SDS011;29762;50.086;14.364;2022-11-15T16:53:00;8.63;;;3.97;;
44098;SDS011;29762;50.086;14.364;2022-11-15T16:58:20;8.40;;;3.80;;
44098;SDS011;29762;50.086;14.364;2022-11-15T17:03:39;7.25;;;4.10;;
44098;SDS011;29762;50.086;14.364;2022-11-15T17:08:59;9.07;;;4.68;;
44098;SDS011;29762;50.086;14.364;2022-11-15T17:14:18;11.02;;;3.85;;
44098;SDS011;29762;50.086;14.364;2022-11-15T17:19:38;7.22;;;4.28;;
44098;SDS011;29762;50.086;14.364;2022-11-15T17:24:57;7.80;;;3.90;;
44098;SDS011;29762;50.086;14.364;2022-11-15T17:30:16;9.55;;;4.13;;
44098;SDS011;29762;50.086;14.364;2022-11-15T17:35:38;8.18;;;4.05;;
44098;SDS011;29762;50.086;14.364;2022-11-15T17:41:01;8.77;;;4.07;;
44098;SDS011;29762;50.086;14.364;2022-11-15T17:46:22;6.88;;;3.67;;
44098;SDS011;29762;50.086;14.364;2022-11-15T17:51:42;7.95;;;4.00;;
44098;SDS011;29762;50.086;14.364;2022-11-15T17:57:01;8.15;;;3.88;;
44098;SDS011;29762;50.086;14.364;2022-11-15T18:02:21;6.25;;;4.00;;
44098;SDS011;29762;50.086;14.364;2022-11-15T18:07:40;6.03;;;3.80;;
44098;SDS011;29762;50.086;14.364;2022-11-15T18:12:59;5.40;;;3.63;;
44098;SDS011;29762;50.086;14.364;2022-11-15T18:18:19;5.05;;;3.63;;
44098;SDS011;29762;50.086;14.364;2022-11-15T18:23:38;5.75;;;3.75;;
44098;SDS011;29762;50.086;14.364;2022-11-15T18:29:02;6.00;;;3.63;;
44098;SDS011;29762;50.086;14.364;2022-11-15T18:34:23;5.75;;;3.60;;
44098;SDS011;29762;50.086;14.364;2022-11-15T18:39:43;6.10;;;3.50;;
44098;SDS011;29762;50.086;14.364;2022-11-15T18:45:02;7.30;;;3.78;;
44098;SDS011;29762;50.086;14.364;2022-11-15T18:50:22;5.38;;;3.65;;
44098;SDS011;29762;50.086;14.364;2022-11-15T18:55:41;6.75;;;3.40;;
44098;SDS011;29762;50.086;14.364;2022-11-15T19:01:05;5.72;;;3.63;;
44098;SDS011;29762;50.086;14.364;2022-11-15T19:06:27;5.53;;;3.55;;
44098;SDS011;29762;50.086;14.364;2022-11-15T19:11:47;4.15;;;3.35;;
44098;SDS011;29762;50.086;14.364;2022-11-15T19:17:09;4.72;;;3.60;;
44098;SDS011;29762;50.086;14.364;2022-11-15T19:22:28;4.57;;;3.78;;
44098;SDS011;29762;50.086;14.364;2022-11-15T19:27:48;6.22;;;3.13;;
44098;SDS011;29762;50.086;14.364;2022-11-15T19:33:08;4.60;;;3.50;;
44098;SDS011;29762;50.086;14.364;2022-11-15T19:38:29;4.22;;;3.30;;
44098;SDS011;29762;50.086;14.364;2022-11-15T19:43:52;4.32;;;3.17;;
44098;SDS011;29762;50.086;14.364;2022-11-15T19:49:11;3.47;;;2.88;;
44098;SDS011;29762;50.086;14.364;2022-11-15T19:54:31;6.93;;;3.42;;
44098;SDS011;29762;50.086;14.364;2022-11-15T19:59:51;6.25;;;3.25;;
44098;SDS011;29762;50.086;14.364;2022-11-15T20:05:10;6.20;;;3.20;;
44098;SDS011;29762;50.086;14.364;2022-11-15T20:10:29;4.60;;;3.03;;
44098;SDS011;29762;50.086;14.364;2022-11-15T20:15:48;4.95;;;3.33;;
44098;SDS011;29762;50.086;14.364;2022-11-15T20:21:08;7.30;;;3.45;;
44098;SDS011;29762;50.086;14.364;2022-11-15T20:26:28;4.93;;;3.60;;
44098;SDS011;29762;50.086;14.364;2022-11-15T20:31:50;4.82;;;2.97;;
44098;SDS011;29762;50.086;14.364;2022-11-15T20:37:09;7.90;;;3.08;;
44098;SDS011;29762;50.086;14.364;2022-11-15T20:42:29;4.60;;;3.17;;
44098;SDS011;29762;50.086;14.364;2022-11-15T20:47:48;4.28;;;3.00;;
44098;SDS011;29762;50.086;14.364;2022-11-15T20:53:09;4.57;;;3.00;;
44098;SDS011;29762;50.086;14.364;2022-11-15T20:58:30;6.40;;;3.20;;
44098;SDS011;29762;50.086;14.364;2022-11-15T21:03:50;5.05;;;3.08;;
44098;SDS011;29762;50.086;14.364;2022-11-15T21:09:13;3.90;;;3.05;;
44098;SDS011;29762;50.086;14.364;2022-11-15T21:14:51;3.60;;;3.00;;
44098;SDS011;29762;50.086;14.364;2022-11-15T21:20:11;4.95;;;3.03;;
44098;SDS011;29762;50.086;14.364;2022-11-15T21:25:33;3.78;;;3.15;;
44098;SDS011;29762;50.086;14.364;2022-11-15T21:30:57;4.35;;;3.08;;
44098;SDS011;29762;50.086;14.364;2022-11-15T21:36:18;4.45;;;2.92;;
44098;SDS011;29762;50.086;14.364;2022-11-15T21:41:38;3.83;;;3.08;;
44098;SDS011;29762;50.086;14.364;2022-11-15T21:46:58;3.53;;;2.80;;
44098;SDS011;29762;50.086;14.364;2022-11-15T21:52:18;4.88;;;3.20;;
44098;SDS011;29762;50.086;14.364;2022-11-15T21:57:37;5.82;;;3.28;;
44098;SDS011;29762;50.086;14.364;2022-11-15T22:02:57;3.95;;;3.15;;
44098;SDS011;29762;50.086;14.364;2022-11-15T22:08:16;3.75;;;3.08;;
44098;SDS011;29762;50.086;14.364;2022-11-15T22:13:36;3.65;;;2.78;;
44098;SDS011;29762;50.086;14.364;2022-11-15T22:18:55;4.13;;;2.88;;
44098;SDS011;29762;50.086;14.364;2022-11-15T22:24:15;3.78;;;2.92;;
44098;SDS011;29762;50.086;14.364;2022-11-15T22:29:36;5.13;;;3.08;;
44098;SDS011;29762;50.086;14.364;2022-11-15T22:34:56;3.25;;;2.53;;
44098;SDS011;29762;50.086;14.364;2022-11-15T22:40:15;3.85;;;2.90;;
44098;SDS011;29762;50.086;14.364;2022-11-15T22:45:35;3.63;;;3.15;;
44098;SDS011;29762;50.086;14.364;2022-11-15T22:50:54;3.88;;;2.75;;
44098;SDS011;29762;50.086;14.364;2022-11-15T22:56:14;4.85;;;2.90;;
44098;SDS011;29762;50.086;14.364;2022-11-15T23:01:33;3.60;;;2.90;;
44098;SDS011;29762;50.086;14.364;2022-11-15T23:06:53;3.80;;;2.83;;
44098;SDS011;29762;50.086;14.364;2022-11-15T23:12:12;3.85;;;2.80;;
44098;SDS011;29762;50.086;14.364;2022-11-15T23:23:20;3.35;;;2.67;;
44098;SDS011;29762;50.086;14.364;2022-11-15T23:28:39;4.43;;;3.05;;
44098;SDS011;29762;50.086;14.364;2022-11-15T23:33:59;3.75;;;2.90;;
44098;SDS011;29762;50.086;14.364;2022-11-15T23:39:19;3.65;;;2.78;;
44098;SDS011;29762;50.086;14.364;2022-11-15T23:44:38;3.75;;;2.75;;
44098;SDS011;29762;50.086;14.364;2022-11-15T23:49:58;3.72;;;2.88;;
44098;SDS011;29762;50.086;14.364;2022-11-15T23:55:17;3.03;;;2.67;;
